createdAt,value
2023-03-05T00:01:08.023Z,96226.06
2023-03-05T00:03:35.702Z,96226.59
2023-03-05T00:06:03.091Z,96218.50
2023-03-05T00:08:30.751Z,96214.75
2023-03-05T00:10:59.913Z,96208.28
2023-03-05T00:13:27.094Z,96212.06
2023-03-05T00:15:54.628Z,96202.22
2023-03-05T00:18:22.519Z,96197.41
2023-03-05T00:20:50.166Z,96202.72
2023-03-05T00:23:17.362Z,96200.22
2023-03-05T00:25:46.184Z,96196.69
2023-03-05T00:28:13.663Z,96199.28
2023-03-05T00:30:41.186Z,96190.34
2023-03-05T00:33:09.252Z,96191.28
2023-03-05T00:35:44.938Z,96185.41
2023-03-05T00:38:13.092Z,96175.84
2023-03-05T00:40:41.461Z,96180.28
2023-03-05T00:43:09.816Z,96176.00
2023-03-05T00:45:37.101Z,96180.38
2023-03-05T00:48:05.062Z,96180.38
2023-03-05T00:50:32.250Z,96165.50
2023-03-05T00:52:59.738Z,96173.41
2023-03-05T00:55:26.810Z,96177.84
2023-03-05T00:57:53.967Z,96170.88
2023-03-05T01:00:21.234Z,96159.59
2023-03-05T01:02:48.796Z,96173.47
2023-03-05T01:05:16.176Z,96167.19
2023-03-05T01:07:43.438Z,96165.31
2023-03-05T01:10:12.057Z,96167.75
2023-03-05T01:12:40.003Z,96157.31
2023-03-05T01:15:07.938Z,96164.13
2023-03-05T01:17:35.186Z,96164.75
2023-03-05T01:20:02.459Z,96147.88
2023-03-05T01:22:29.596Z,96156.16
2023-03-05T01:24:56.759Z,96155.63
2023-03-05T01:27:24.091Z,96155.16
2023-03-05T01:29:51.207Z,96146.03
2023-03-05T01:32:18.633Z,96146.41
2023-03-05T01:34:45.811Z,96142.50
2023-03-05T01:37:13.106Z,96144.72
2023-03-05T01:39:40.302Z,96140.25
2023-03-05T01:42:07.861Z,96120.69
2023-03-05T01:44:35.620Z,96116.03
2023-03-05T01:47:03.732Z,96117.81
2023-03-05T01:49:39.040Z,96124.13
2023-03-05T01:52:19.991Z,96119.28
2023-03-05T01:54:53.853Z,96111.25
2023-03-05T01:57:23.247Z,96116.19
2023-03-05T01:59:56.117Z,96116.19
2023-03-05T02:02:23.787Z,96107.41
2023-03-05T02:04:56.560Z,96107.63
2023-03-05T02:07:25.299Z,96100.53
2023-03-05T02:09:52.729Z,96106.09
2023-03-05T02:12:20.386Z,96105.09
2023-03-05T02:14:51.134Z,96100.72
2023-03-05T02:17:18.379Z,96093.53
2023-03-05T02:19:54.744Z,96093.66
2023-03-05T02:22:24.485Z,96089.59
2023-03-05T02:24:52.561Z,96086.38
2023-03-05T02:27:23.782Z,96088.06
2023-03-05T02:29:52.377Z,96087.66
2023-03-05T02:32:19.470Z,96086.06
2023-03-05T02:34:46.704Z,96080.34
2023-03-05T02:37:14.057Z,96075.53
2023-03-05T02:39:41.287Z,96072.34
2023-03-05T02:42:09.512Z,96073.84
2023-03-05T02:44:37.663Z,96069.81
2023-03-05T02:47:04.998Z,96067.63
2023-03-05T02:49:33.905Z,96063.03
2023-03-05T02:52:00.996Z,96060.63
2023-03-05T02:54:28.427Z,96053.16
2023-03-05T02:56:55.946Z,96054.84
2023-03-05T02:59:23.228Z,96052.28
2023-03-05T03:01:50.347Z,96047.81
2023-03-05T03:04:17.455Z,96044.88
2023-03-05T03:06:44.565Z,96039.22
2023-03-05T03:09:11.704Z,96034.13
2023-03-05T03:11:38.804Z,96039.59
2023-03-05T03:14:06.024Z,96036.69
2023-03-05T03:16:34.315Z,96032.47
2023-03-05T03:19:01.457Z,96034.81
2023-03-05T03:21:28.575Z,96029.25
2023-03-05T03:23:55.777Z,96028.00
2023-03-05T03:26:23.013Z,96028.53
2023-03-05T03:28:50.991Z,96033.97
2023-03-05T03:31:18.116Z,96033.69
2023-03-05T03:33:45.660Z,96026.25
2023-03-05T03:36:12.960Z,96028.56
2023-03-05T03:38:40.230Z,96024.56
2023-03-05T03:41:08.263Z,96020.81
2023-03-05T03:43:36.757Z,96020.28
2023-03-05T03:46:06.597Z,96013.41
2023-03-05T03:48:34.589Z,96017.28
2023-03-05T03:51:05.233Z,96021.97
2023-03-05T03:53:32.409Z,96017.16
2023-03-05T03:56:00.301Z,96015.16
2023-03-05T03:58:27.559Z,96019.47
2023-03-05T04:00:54.611Z,96008.78
2023-03-05T04:03:21.731Z,96012.31
2023-03-05T04:05:48.801Z,96009.94
2023-03-05T04:08:15.949Z,96010.66
2023-03-05T04:10:43.163Z,96008.88
2023-03-05T04:13:10.293Z,96005.88
2023-03-05T04:15:37.393Z,95997.50
2023-03-05T04:18:04.734Z,95997.59
2023-03-05T04:20:32.482Z,95990.38
2023-03-05T04:22:59.540Z,95989.03
2023-03-05T04:25:26.833Z,95987.44
2023-03-05T04:27:54.017Z,95984.22
2023-03-05T04:30:21.321Z,95981.19
2023-03-05T04:32:48.446Z,95974.59
2023-03-05T04:35:15.697Z,95982.44
2023-03-05T04:37:42.798Z,95976.81
2023-03-05T04:40:10.538Z,95973.78
2023-03-05T04:42:37.750Z,95976.06
2023-03-05T04:45:07.237Z,95967.19
2023-03-05T04:47:34.943Z,95974.38
2023-03-05T04:50:02.197Z,95967.38
2023-03-05T04:52:29.233Z,95973.13
2023-03-05T04:54:56.436Z,95958.72
2023-03-05T04:57:24.167Z,95961.22
2023-03-05T04:59:51.555Z,95964.34
2023-03-05T05:02:18.705Z,95958.81
2023-03-05T05:04:46.244Z,95961.22
2023-03-05T05:07:13.373Z,95954.00
2023-03-05T05:09:41.847Z,95952.84
2023-03-05T05:12:10.755Z,95949.72
2023-03-05T05:14:38.057Z,95950.78
2023-03-05T05:17:05.462Z,95959.75
2023-03-05T05:19:34.267Z,95956.72
2023-03-05T05:22:02.102Z,95956.53
2023-03-05T05:24:29.331Z,95950.47
2023-03-05T05:26:56.998Z,95947.50
2023-03-05T05:29:24.282Z,95951.50
2023-03-05T05:31:51.480Z,95952.53
2023-03-05T05:34:18.823Z,95953.06
2023-03-05T05:36:45.955Z,95953.69
2023-03-05T05:39:13.111Z,95954.28
2023-03-05T05:41:40.236Z,95957.13
2023-03-05T05:44:07.430Z,95959.53
2023-03-05T05:46:34.613Z,95954.09
2023-03-05T05:49:01.852Z,95960.06
2023-03-05T05:51:29.023Z,95955.56
2023-03-05T05:53:56.352Z,95947.91
2023-03-05T05:56:23.631Z,95960.59
2023-03-05T05:58:50.811Z,95961.19
2023-03-05T06:01:30.821Z,95961.53
2023-03-05T06:03:58.959Z,95960.25
2023-03-05T06:06:27.350Z,95963.72
2023-03-05T06:08:55.675Z,95963.91
2023-03-05T06:11:23.381Z,95964.75
2023-03-05T06:13:51.072Z,95961.72
2023-03-05T06:16:24.450Z,95958.47
2023-03-05T06:18:52.910Z,95958.03
2023-03-05T06:21:22.039Z,95957.94
2023-03-05T06:23:49.871Z,95957.84
2023-03-05T06:26:20.085Z,95957.00
2023-03-05T06:28:47.311Z,95955.34
2023-03-05T06:31:18.136Z,95954.59
2023-03-05T06:33:45.850Z,95956.69
2023-03-05T06:36:16.288Z,95952.72
2023-03-05T06:38:43.651Z,95959.63
2023-03-05T06:41:16.740Z,95954.28
2023-03-05T06:43:46.288Z,95954.69
2023-03-05T06:46:24.036Z,95947.69
2023-03-05T06:48:52.102Z,95945.72
2023-03-05T06:51:22.840Z,95940.56
2023-03-05T06:53:51.583Z,95946.53
2023-03-05T06:56:20.118Z,95951.44
2023-03-05T06:58:51.149Z,95945.69
2023-03-05T07:01:18.912Z,95948.72
2023-03-05T07:03:53.764Z,95945.75
2023-03-05T07:06:22.591Z,95952.13
2023-03-05T07:08:50.310Z,95946.66
2023-03-05T07:11:20.168Z,95940.25
2023-03-05T07:13:48.136Z,95943.13
2023-03-05T07:16:21.440Z,95945.09
2023-03-05T07:18:49.683Z,95950.84
2023-03-05T07:21:21.078Z,95953.03
2023-03-05T07:23:48.530Z,95946.50
2023-03-05T07:26:16.519Z,95949.56
2023-03-05T07:28:44.125Z,95941.38
2023-03-05T07:31:19.670Z,95943.78
2023-03-05T07:33:51.243Z,95941.66
2023-03-05T07:36:18.620Z,95939.00
2023-03-05T07:38:46.702Z,95941.69
2023-03-05T07:41:20.419Z,95941.69
2023-03-05T07:43:49.124Z,95940.72
2023-03-05T07:46:19.518Z,95939.94
2023-03-05T07:48:46.771Z,95936.38
2023-03-05T07:51:17.603Z,95939.47
2023-03-05T07:53:46.406Z,95933.28
2023-03-05T07:56:13.697Z,95932.50
2023-03-05T07:58:40.905Z,95928.94
2023-03-05T08:01:16.050Z,95929.97
2023-03-05T08:03:43.952Z,95928.00
2023-03-05T08:06:12.909Z,95924.84
2023-03-05T08:08:40.057Z,95924.41
2023-03-05T08:11:13.274Z,95929.91
2023-03-05T08:13:40.719Z,95922.31
2023-03-05T08:16:14.547Z,95918.09
2023-03-05T08:18:41.909Z,95919.81
2023-03-05T08:21:17.923Z,95917.81
2023-03-05T08:23:45.064Z,95915.06
2023-03-05T08:26:14.544Z,95910.78
2023-03-05T08:28:41.803Z,95906.41
2023-03-05T08:31:10.463Z,95911.38
2023-03-05T08:33:38.780Z,95904.34
2023-03-05T08:36:06.582Z,95907.84
2023-03-05T08:38:33.673Z,95902.34
2023-03-05T08:41:01.583Z,95907.09
2023-03-05T08:43:28.791Z,95904.84
2023-03-05T08:45:55.870Z,95904.16
2023-03-05T08:48:23.496Z,95905.34
2023-03-05T08:50:50.759Z,95896.38
2023-03-05T08:53:18.187Z,95899.25
2023-03-05T08:55:53.406Z,95897.09
2023-03-05T08:58:20.498Z,95896.38
2023-03-05T09:00:47.715Z,95893.28
2023-03-05T09:03:15.294Z,95888.84
2023-03-05T09:05:42.470Z,95893.38
2023-03-05T09:08:09.621Z,95887.41
2023-03-05T09:10:36.796Z,95886.69
2023-03-05T09:13:04.509Z,95881.09
2023-03-05T09:15:31.805Z,95882.72
2023-03-05T09:18:00.165Z,95877.63
2023-03-05T09:20:27.512Z,95884.59
2023-03-05T09:22:54.961Z,95879.03
2023-03-05T09:25:23.203Z,95885.31
2023-03-05T09:27:50.271Z,95877.22
2023-03-05T09:30:17.781Z,95876.19
2023-03-05T09:32:44.975Z,95871.28
2023-03-05T09:35:12.621Z,95870.28
2023-03-05T09:37:39.796Z,95872.19
2023-03-05T09:40:07.685Z,95878.50
2023-03-05T09:42:40.509Z,95874.66
2023-03-05T09:45:14.320Z,95864.34
2023-03-05T09:47:46.961Z,95874.34
2023-03-05T09:50:39.210Z,95867.44
2023-03-05T09:53:12.912Z,95869.09
2023-03-05T09:55:44.216Z,95866.03
2023-03-05T09:58:40.873Z,95862.38
2023-03-05T10:01:17.733Z,95874.88
2023-03-05T10:03:54.294Z,95867.09
2023-03-05T10:06:32.190Z,95861.19
2023-03-05T10:09:16.213Z,95858.03
2023-03-05T10:12:08.363Z,95855.75
2023-03-05T10:14:39.924Z,95851.78
2023-03-05T10:17:45.619Z,95845.28
2023-03-05T10:20:51.576Z,95855.28
2023-03-05T10:23:33.848Z,95845.78
2023-03-05T10:26:14.428Z,95843.97
2023-03-05T10:29:26.548Z,95840.72
2023-03-05T10:32:09.467Z,95833.44
2023-03-05T10:34:42.542Z,95832.81
2023-03-05T10:37:28.555Z,95825.72
2023-03-05T10:40:13.871Z,95823.41
2023-03-05T10:42:53.022Z,95826.56
2023-03-05T10:45:46.409Z,95822.44
2023-03-05T10:48:34.282Z,95820.50
2023-03-05T10:51:14.147Z,95815.78
2023-03-05T10:54:09.423Z,95813.88
2023-03-05T10:56:37.386Z,95810.78
2023-03-05T10:59:04.513Z,95809.59
2023-03-05T11:01:32.577Z,95801.00
2023-03-05T11:04:06.508Z,95801.97
2023-03-05T11:06:38.838Z,95798.53
2023-03-05T11:09:24.840Z,95786.47
2023-03-05T11:12:06.209Z,95782.28
2023-03-05T11:14:34.187Z,95785.63
2023-03-05T11:17:03.531Z,95776.75
2023-03-05T11:19:33.519Z,95775.09
2023-03-05T11:22:21.639Z,95777.13
2023-03-05T11:25:04.117Z,95776.72
2023-03-05T11:27:40.655Z,95782.16
2023-03-05T11:30:22.099Z,95780.34
2023-03-05T11:32:49.301Z,95770.78
2023-03-05T11:35:32.063Z,95767.97
2023-03-05T11:38:06.598Z,95766.75
2023-03-05T11:40:38.140Z,95757.81
2023-03-05T11:43:05.583Z,95766.59
2023-03-05T11:45:34.360Z,95756.88
2023-03-05T11:48:13.385Z,95749.97
2023-03-05T11:50:44.301Z,95750.81
2023-03-05T11:53:20.939Z,95748.19
2023-03-05T11:56:00.460Z,95735.00
2023-03-05T11:58:33.217Z,95746.22
2023-03-05T12:01:01.577Z,95747.06
2023-03-05T12:03:38.562Z,95734.59
2023-03-05T12:06:39.739Z,95728.78
2023-03-05T12:09:28.459Z,95725.16
2023-03-05T12:12:16.376Z,95729.72
2023-03-05T12:14:57.134Z,95724.03
2023-03-05T12:17:33.603Z,95716.84
2023-03-05T12:20:06.649Z,95716.44
2023-03-05T12:22:42.492Z,95716.59
2023-03-05T12:25:27.072Z,95708.84
2023-03-05T12:27:55.128Z,95709.94
2023-03-05T12:30:34.221Z,95709.38
2023-03-05T12:33:06.131Z,95694.41
2023-03-05T12:35:37.608Z,95692.75
2023-03-05T12:38:31.358Z,95686.22
2023-03-05T12:41:23.061Z,95688.16
2023-03-05T12:44:08.927Z,95674.03
2023-03-05T12:46:38.321Z,95675.00
2023-03-05T12:49:20.789Z,95674.47
2023-03-05T12:51:52.748Z,95673.50
2023-03-05T12:54:31.289Z,95667.53
2023-03-05T12:57:02.078Z,95668.38
2023-03-05T12:59:46.964Z,95661.44
2023-03-05T13:02:44.826Z,95664.19
2023-03-05T13:05:18.918Z,95654.38
2023-03-05T13:07:46.046Z,95654.19
2023-03-05T13:10:29.779Z,95651.31
2023-03-05T13:12:58.869Z,95649.09
2023-03-05T13:15:26.645Z,95644.81
2023-03-05T13:18:03.628Z,95648.66
2023-03-05T13:20:38.764Z,95644.94
2023-03-05T13:23:17.237Z,95648.66
2023-03-05T13:26:04.106Z,95640.88
2023-03-05T13:28:33.506Z,95649.34
2023-03-05T13:31:13.019Z,95642.44
2023-03-05T13:33:40.635Z,95645.63
2023-03-05T13:36:07.950Z,95644.63
2023-03-05T13:38:45.606Z,95638.94
2023-03-05T13:41:15.937Z,95635.50
2023-03-05T13:43:45.995Z,95641.91
2023-03-05T13:46:13.591Z,95633.97
2023-03-05T13:48:40.723Z,95631.91
2023-03-05T13:51:10.019Z,95627.03
2023-03-05T13:53:37.212Z,95620.38
2023-03-05T13:56:14.607Z,95617.19
2023-03-05T13:58:56.108Z,95616.53
2023-03-05T14:01:44.188Z,95618.84
2023-03-05T14:04:13.946Z,95617.50
2023-03-05T14:06:55.357Z,95619.06
2023-03-05T14:09:31.245Z,95613.06
2023-03-05T14:12:04.323Z,95607.78
2023-03-05T14:14:36.913Z,95606.38
2023-03-05T14:17:23.847Z,95617.31
2023-03-05T14:19:51.368Z,95610.25
2023-03-05T14:22:36.766Z,95608.63
2023-03-05T14:25:05.888Z,95605.81
2023-03-05T14:27:37.122Z,95599.47
2023-03-05T14:30:05.474Z,95595.72
2023-03-05T14:32:36.264Z,95589.38
2023-03-05T14:35:06.163Z,95582.56
2023-03-05T14:37:36.988Z,95587.44
2023-03-05T14:40:08.906Z,95583.69
2023-03-05T14:42:39.380Z,95580.66
2023-03-05T14:45:19.646Z,95579.13
2023-03-05T14:47:47.636Z,95579.56
2023-03-05T14:50:21.210Z,95573.63
2023-03-05T14:52:51.991Z,95572.38
2023-03-05T14:55:23.075Z,95569.63
2023-03-05T14:57:51.880Z,95567.38
2023-03-05T15:00:25.495Z,95565.88
2023-03-05T15:02:53.139Z,95567.94
2023-03-05T15:05:21.116Z,95567.94
2023-03-05T15:07:49.156Z,95554.94
2023-03-05T15:10:19.343Z,95558.81
2023-03-05T15:12:46.831Z,95556.16
2023-03-05T15:15:15.677Z,95559.19
2023-03-05T15:17:47.799Z,95559.19
2023-03-05T15:20:27.339Z,95554.78
2023-03-05T15:22:55.219Z,95561.28
2023-03-05T15:25:23.818Z,95549.66
2023-03-05T15:27:53.930Z,95545.47
2023-03-05T15:30:30.566Z,95546.19
2023-03-05T15:33:01.818Z,95546.44
2023-03-05T15:35:29.648Z,95543.97
2023-03-05T15:37:58.277Z,95540.66
2023-03-05T15:40:28.033Z,95536.47
2023-03-05T15:42:57.068Z,95532.63
2023-03-05T15:45:24.955Z,95530.94
2023-03-05T15:47:53.522Z,95537.16
2023-03-05T15:50:22.717Z,95524.72
2023-03-05T15:52:50.346Z,95533.69
2023-03-05T15:55:18.714Z,95522.47
2023-03-05T15:57:48.848Z,95532.16
2023-03-05T16:00:25.798Z,95528.28
2023-03-05T16:02:53.674Z,95533.25
2023-03-05T16:05:21.178Z,95521.50
2023-03-05T16:07:51.834Z,95524.50
2023-03-05T16:10:29.070Z,95524.75
2023-03-05T16:13:04.387Z,95522.56
2023-03-05T16:15:33.380Z,95522.97
2023-03-05T16:18:04.774Z,95519.91
2023-03-05T16:20:31.932Z,95518.53
2023-03-05T16:22:59.562Z,95514.22
2023-03-05T16:25:27.089Z,95511.03
2023-03-05T16:27:54.234Z,95514.91
2023-03-05T16:30:21.592Z,95500.63
2023-03-05T16:32:49.260Z,95505.84
2023-03-05T16:35:16.623Z,95496.84
2023-03-05T16:37:43.850Z,95500.94
2023-03-05T16:40:12.527Z,95506.72
2023-03-05T16:42:40.105Z,95495.09
2023-03-05T16:45:08.079Z,95496.69
2023-03-05T16:47:35.405Z,95498.88
2023-03-05T16:50:02.690Z,95497.59
2023-03-05T16:52:30.304Z,95497.03
2023-03-05T16:54:57.406Z,95504.44
2023-03-05T16:57:26.110Z,95491.84
2023-03-05T16:59:54.465Z,95484.50
2023-03-05T17:02:22.103Z,95492.63
2023-03-05T17:04:50.709Z,95496.19
2023-03-05T17:07:18.254Z,95494.69
2023-03-05T17:09:48.413Z,95494.09
2023-03-05T17:12:15.465Z,95500.81
2023-03-05T17:14:42.634Z,95490.22
2023-03-05T17:17:10.034Z,95487.72
2023-03-05T17:19:37.652Z,95489.63
2023-03-05T17:22:05.215Z,95486.88
2023-03-05T17:24:33.597Z,95481.75
2023-03-05T17:27:01.525Z,95480.09
2023-03-05T17:29:29.461Z,95471.50
2023-03-05T17:31:56.617Z,95471.91
2023-03-05T17:34:35.608Z,95475.38
2023-03-05T17:37:05.813Z,95465.13
2023-03-05T17:39:33.638Z,95468.91
2023-03-05T17:42:01.499Z,95467.47
2023-03-05T17:44:28.619Z,95465.47
2023-03-05T17:46:55.809Z,95467.28
2023-03-05T17:49:23.067Z,95466.59
2023-03-05T17:51:50.180Z,95472.19
2023-03-05T17:54:17.351Z,95478.50
2023-03-05T17:56:44.467Z,95475.44
2023-03-05T17:59:11.690Z,95471.75
2023-03-05T18:01:38.832Z,95473.19
2023-03-05T18:04:08.948Z,95467.97
2023-03-05T18:06:36.112Z,95467.25
2023-03-05T18:09:03.569Z,95471.78
2023-03-05T18:11:30.879Z,95471.06
2023-03-05T18:13:58.193Z,95477.25
2023-03-05T18:16:25.537Z,95468.09
2023-03-05T18:18:53.213Z,95466.72
2023-03-05T18:21:21.446Z,95478.25
2023-03-05T18:23:49.861Z,95475.03
2023-03-05T18:26:17.534Z,95476.81
2023-03-05T18:28:44.719Z,95462.44
2023-03-05T18:31:11.890Z,95462.31
2023-03-05T18:33:39.181Z,95466.63
2023-03-05T18:36:06.911Z,95462.91
2023-03-05T18:38:35.320Z,95463.63
2023-03-05T18:41:03.479Z,95459.53
2023-03-05T18:43:30.746Z,95453.94
2023-03-05T18:45:58.720Z,95457.00
2023-03-05T18:48:26.088Z,95458.22
2023-03-05T18:50:54.653Z,95455.13
2023-03-05T18:53:22.969Z,95446.59
2023-03-05T18:55:51.970Z,95451.69
2023-03-05T18:58:19.484Z,95444.22
2023-03-05T19:00:47.954Z,95448.16
2023-03-05T19:03:20.608Z,95452.19
2023-03-05T19:05:50.612Z,95443.38
2023-03-05T19:08:18.003Z,95453.34
2023-03-05T19:10:45.169Z,95446.44
2023-03-05T19:13:38.318Z,95452.78
2023-03-05T19:16:40.774Z,95440.06
2023-03-05T19:19:24.708Z,95445.28
2023-03-05T19:21:54.373Z,95441.84
2023-03-05T19:24:23.557Z,95446.00
2023-03-05T19:26:55.542Z,95439.44
2023-03-05T19:29:24.954Z,95436.56
2023-03-05T19:31:52.869Z,95431.34
2023-03-05T19:34:21.409Z,95432.41
2023-03-05T19:36:48.540Z,95435.84
2023-03-05T19:39:15.963Z,95435.03
2023-03-05T19:41:43.028Z,95440.03
2023-03-05T19:44:10.228Z,95437.16
2023-03-05T19:46:37.348Z,95433.44
2023-03-05T19:49:05.027Z,95435.81
2023-03-05T19:51:32.215Z,95427.97
2023-03-05T19:53:59.689Z,95437.03
2023-03-05T19:56:27.068Z,95434.78
2023-03-05T19:58:54.199Z,95437.41
2023-03-05T20:01:24.344Z,95430.94
2023-03-05T20:03:53.844Z,95430.72
2023-03-05T20:06:22.167Z,95425.34
2023-03-05T20:08:49.839Z,95423.56
2023-03-05T20:11:18.736Z,95431.31
2023-03-05T20:13:46.725Z,95425.91
2023-03-05T20:16:20.087Z,95424.97
2023-03-05T20:18:47.926Z,95416.16
2023-03-05T20:21:21.510Z,95417.00
2023-03-05T20:23:52.578Z,95418.53
2023-03-05T20:26:21.256Z,95421.88
2023-03-05T20:28:50.114Z,95421.72
2023-03-05T20:31:22.331Z,95414.84
2023-03-05T20:33:50.508Z,95408.63
2023-03-05T20:36:18.108Z,95406.16
2023-03-05T20:38:46.068Z,95414.69
2023-03-05T20:41:16.989Z,95408.19
2023-03-05T20:43:47.846Z,95408.31
2023-03-05T20:46:27.276Z,95400.31
2023-03-05T20:48:57.879Z,95397.59
2023-03-05T20:51:37.103Z,95401.16
2023-03-05T20:54:11.509Z,95396.63
2023-03-05T20:56:39.203Z,95398.41
2023-03-05T20:59:09.063Z,95395.19
2023-03-05T21:01:39.249Z,95399.50
2023-03-05T21:04:07.287Z,95397.69
2023-03-05T21:06:35.136Z,95389.00
2023-03-05T21:09:02.776Z,95388.31
2023-03-05T21:11:30.151Z,95388.19
2023-03-05T21:13:57.283Z,95388.31
2023-03-05T21:16:27.380Z,95384.84
2023-03-05T21:18:56.172Z,95384.41
2023-03-05T21:21:23.391Z,95381.47
2023-03-05T21:23:50.676Z,95379.09
2023-03-05T21:26:18.508Z,95374.94
2023-03-05T21:28:45.586Z,95368.31
2023-03-05T21:31:21.208Z,95370.47
2023-03-05T21:33:49.812Z,95357.41
2023-03-05T21:36:20.334Z,95360.00
2023-03-05T21:38:48.750Z,95356.56
2023-03-05T21:41:18.425Z,95347.03
2023-03-05T21:43:45.588Z,95345.50
2023-03-05T21:46:12.921Z,95346.13
2023-03-05T21:48:40.406Z,95346.97
2023-03-05T21:51:09.499Z,95343.50
2023-03-05T21:53:36.696Z,95339.88
2023-03-05T21:56:18.254Z,95333.78
2023-03-05T21:58:46.098Z,95329.41
2023-03-05T22:01:15.012Z,95327.59
2023-03-05T22:03:42.367Z,95326.78
2023-03-05T22:06:11.768Z,95317.97
2023-03-05T22:08:38.955Z,95321.44
2023-03-05T22:11:15.364Z,95319.53
2023-03-05T22:13:43.518Z,95318.53
2023-03-05T22:16:11.377Z,95319.25
2023-03-05T22:18:38.442Z,95319.13
2023-03-05T22:21:06.317Z,95318.06
2023-03-05T22:23:34.749Z,95313.50
2023-03-05T22:26:06.971Z,95312.44
2023-03-05T22:28:35.355Z,95321.81
2023-03-05T22:31:02.625Z,95314.81
2023-03-05T22:33:30.366Z,95309.44
2023-03-05T22:35:58.220Z,95308.63
2023-03-05T22:38:25.594Z,95306.81
2023-03-05T22:40:53.135Z,95313.03
2023-03-05T22:43:20.751Z,95310.28
2023-03-05T22:45:48.379Z,95301.44
2023-03-05T22:48:15.700Z,95301.44
2023-03-05T22:50:44.587Z,95292.91
2023-03-05T22:53:12.748Z,95292.19
2023-03-05T22:55:42.321Z,95297.13
2023-03-05T22:58:09.577Z,95292.75
2023-03-05T23:00:36.942Z,95294.22
2023-03-05T23:03:04.318Z,95286.19
2023-03-05T23:05:31.479Z,95288.13
2023-03-05T23:07:58.555Z,95292.44
2023-03-05T23:10:28.938Z,95287.22
2023-03-05T23:12:58.751Z,95281.28
2023-03-05T23:15:29.740Z,95284.84
2023-03-05T23:17:57.437Z,95278.56
2023-03-05T23:20:28.641Z,95275.13
2023-03-05T23:22:56.579Z,95280.34
2023-03-05T23:25:26.610Z,95275.03
2023-03-05T23:27:54.797Z,95274.09
2023-03-05T23:30:29.608Z,95267.19
2023-03-05T23:33:13.738Z,95260.78
2023-03-05T23:35:44.094Z,95261.19
2023-03-05T23:38:14.991Z,95256.19
2023-03-05T23:40:45.124Z,95265.81
2023-03-05T23:43:13.049Z,95261.97
2023-03-05T23:45:45.249Z,95258.19
2023-03-05T23:48:12.498Z,95259.03
2023-03-05T23:50:43.130Z,95257.13
2023-03-05T23:53:12.426Z,95265.28
2023-03-05T23:55:44.392Z,95249.97
2023-03-05T23:58:12.119Z,95250.94
